Time;durP1;ratioP1;P1;durP2;ratioP2;P2;SDS_P1;SDS_P2;PMS_P1;PMS_P2;Temp;Humidity;BMP_temperature;BMP_pressure;BME280_temperature;BME280_humidity;BME280_pressure;Samples;Min_cycle;Max_cycle;Signal;HPM_P1;HPM_P2
2022/03/26 00:00:06;;;;;;;7.67;5.40;;;8.20;82.20;;;;;;5034049;28;21015;-45
2022/03/26 00:02:33;;;;;;;8.03;6.00;;;8.10;81.30;;;;;;5034371;28;20474;-46
2022/03/26 00:05:00;;;;;;;6.40;5.80;;;7.90;81.70;;;;;;5034193;28;20501;-44
2022/03/26 00:07:28;;;;;;;6.63;5.60;;;7.70;82.30;;;;;;5034375;28;21002;-44
2022/03/26 00:09:56;;;;;;;5.97;4.70;;;7.40;83.30;;;;;;5033817;28;20557;-44
2022/03/26 00:12:23;;;;;;;6.50;5.90;;;7.20;84.30;;;;;;5034209;28;20989;-44
2022/03/26 00:14:50;;;;;;;6.70;5.77;;;6.90;84.90;;;;;;5034324;28;20557;-45
2022/03/26 00:17:17;;;;;;;6.43;5.40;;;7.10;85.30;;;;;;5033975;28;20484;-44
2022/03/26 00:19:44;;;;;;;6.10;5.50;;;7.10;85.00;;;;;;5034025;28;20520;-46
2022/03/26 00:22:11;;;;;;;6.90;5.87;;;7.00;85.60;;;;;;5034250;28;20877;-44
2022/03/26 00:24:38;;;;;;;6.33;5.40;;;7.20;85.20;;;;;;5033807;28;20497;-44
2022/03/26 00:27:06;;;;;;;6.50;5.43;;;7.30;84.30;;;;;;5034051;28;20525;-44
2022/03/26 00:29:33;;;;;;;5.93;5.37;;;7.20;85.10;;;;;;5033454;28;20993;-44
2022/03/26 00:32:00;;;;;;;7.20;5.80;;;7.30;85.00;;;;;;5034208;28;20477;-44
2022/03/26 00:34:27;;;;;;;7.37;6.67;;;7.30;85.10;;;;;;5033967;28;20462;-44
2022/03/26 00:36:54;;;;;;;7.57;5.73;;;7.40;84.90;;;;;;5033764;28;20493;-44
2022/03/26 00:39:21;;;;;;;6.57;5.87;;;7.60;83.50;;;;;;5033680;28;20438;-44
2022/03/26 00:41:48;;;;;;;5.60;5.03;;;7.60;83.20;;;;;;5033489;28;20481;-45
2022/03/26 00:44:17;;;;;;;6.10;5.50;;;7.60;83.40;;;;;;5033611;28;20508;-44
2022/03/26 00:46:45;;;;;;;5.63;4.90;;;7.60;83.30;;;;;;5033346;28;20453;-46
2022/03/26 00:49:12;;;;;;;5.73;5.23;;;7.70;83.20;;;;;;5033721;28;20521;-48
2022/03/26 00:51:39;;;;;;;6.40;5.30;;;7.60;82.90;;;;;;5033620;28;20478;-44
2022/03/26 00:54:08;;;;;;;6.57;5.10;;;7.50;82.90;;;;;;5033230;28;20473;-44
2022/03/26 00:56:36;;;;;;;8.93;5.30;;;7.30;83.60;;;;;;5033496;28;20541;-44
2022/03/26 00:59:04;;;;;;;5.73;5.23;;;7.20;84.30;;;;;;5033384;28;20529;-44
2022/03/26 01:01:32;;;;;;;5.70;5.20;;;7.20;84.60;;;;;;5033428;28;20888;-44
2022/03/26 01:03:59;;;;;;;5.77;5.20;;;7.20;84.70;;;;;;5032970;28;20453;-44
2022/03/26 01:06:26;;;;;;;9.60;5.10;;;7.40;84.80;;;;;;5033575;28;20881;-44
2022/03/26 01:08:53;;;;;;;6.87;5.27;;;7.50;84.20;;;;;;5032667;28;20537;-45
2022/03/26 01:11:21;;;;;;;6.57;4.70;;;7.60;83.70;;;;;;5032879;28;20480;-45
2022/03/26 01:13:49;;;;;;;6.83;5.83;;;7.50;83.20;;;;;;5032987;28;20866;-44
2022/03/26 01:16:17;;;;;;;6.87;6.20;;;7.60;83.30;;;;;;5033787;28;21038;-44
2022/03/26 01:18:45;;;;;;;5.70;5.20;;;7.70;83.30;;;;;;5033106;28;20457;-48
2022/03/26 01:21:12;;;;;;;5.17;4.50;;;7.60;83.30;;;;;;5032804;28;20970;-46
2022/03/26 01:23:39;;;;;;;6.70;4.63;;;7.60;83.10;;;;;;5032974;28;20534;-44
2022/03/26 01:26:06;;;;;;;6.77;5.10;;;7.50;83.00;;;;;;5032933;28;20895;-44
2022/03/26 01:28:33;;;;;;;6.70;5.33;;;6.80;84.50;;;;;;5032757;28;20489;-45
2022/03/26 01:31:00;;;;;;;7.67;5.80;;;6.50;86.00;;;;;;5032320;28;20485;-44
2022/03/26 01:33:27;;;;;;;6.80;5.27;;;6.50;87.10;;;;;;5033004;28;20817;-44
2022/03/26 01:35:55;;;;;;;6.03;5.40;;;6.70;87.40;;;;;;5032544;28;20547;-44
2022/03/26 01:38:22;;;;;;;5.70;4.83;;;7.00;86.70;;;;;;5032591;28;20474;-44
2022/03/26 01:40:49;;;;;;;6.83;6.13;;;7.10;86.00;;;;;;5032196;28;20477;-45
2022/03/26 01:43:16;;;;;;;7.33;5.50;;;7.20;85.40;;;;;;5032549;28;20808;-44
2022/03/26 01:45:43;;;;;;;5.77;4.37;;;7.20;84.70;;;;;;5032453;28;20874;-48
2022/03/26 01:48:10;;;;;;;5.77;5.13;;;7.30;84.90;;;;;;5032569;28;20481;-44
2022/03/26 01:50:38;;;;;;;6.40;5.10;;;7.30;84.10;;;;;;5032005;28;21033;-44
2022/03/26 01:53:07;;;;;;;6.97;5.60;;;7.30;84.30;;;;;;5032306;28;20453;-44
2022/03/26 01:55:34;;;;;;;8.73;5.43;;;7.40;84.00;;;;;;5032081;28;20526;-48
2022/03/26 01:58:01;;;;;;;5.53;5.03;;;7.30;83.70;;;;;;5032413;28;20532;-44
2022/03/26 02:00:28;;;;;;;6.20;5.10;;;7.30;84.40;;;;;;5031781;28;20470;-44
2022/03/26 02:02:55;;;;;;;9.43;4.60;;;7.10;84.60;;;;;;5031844;28;20453;-44
2022/03/26 02:05:22;;;;;;;5.10;4.60;;;7.20;84.70;;;;;;5032090;28;20517;-44
2022/03/26 02:07:51;;;;;;;10.40;4.90;;;7.10;83.90;;;;;;5031967;28;20485;-45
2022/03/26 02:10:20;;;;;;;7.87;5.30;;;6.90;84.50;;;;;;5031464;28;20448;-44
2022/03/26 02:12:47;;;;;;;6.27;5.27;;;6.70;85.00;;;;;;5032175;28;20446;-49
2022/03/26 02:15:15;;;;;;;7.20;4.70;;;6.70;86.00;;;;;;5031659;28;20480;-44
2022/03/26 02:17:43;;;;;;;5.60;4.67;;;6.80;85.90;;;;;;5032006;28;20477;-44
2022/03/26 02:20:13;;;;;;;5.67;4.67;;;6.90;85.40;;;;;;5031836;28;20478;-44
2022/03/26 02:22:41;;;;;;;7.37;5.77;;;7.00;85.20;;;;;;5031060;28;20485;-44
2022/03/26 02:25:10;;;;;;;7.77;5.27;;;6.90;85.10;;;;;;5031425;28;20457;-44
2022/03/26 02:27:37;;;;;;;5.10;4.60;;;6.80;85.60;;;;;;5031786;28;20442;-44
2022/03/26 02:30:05;;;;;;;6.77;4.80;;;6.80;85.90;;;;;;5031346;28;20480;-48
2022/03/26 02:32:32;;;;;;;5.67;5.10;;;6.80;85.90;;;;;;5031558;28;20565;-49
2022/03/26 02:34:59;;;;;;;5.80;4.87;;;6.50;86.00;;;;;;5031866;28;20549;-44
2022/03/26 02:37:27;;;;;;;7.23;5.63;;;6.30;86.60;;;;;;5031363;28;21040;-44
2022/03/26 02:39:54;;;;;;;6.93;5.30;;;6.20;86.90;;;;;;5031293;28;20498;-48
2022/03/26 02:42:21;;;;;;;7.73;5.63;;;6.10;87.40;;;;;;5031777;28;20534;-45
2022/03/26 02:44:49;;;;;;;8.60;5.90;;;6.20;88.00;;;;;;5031191;28;20520;-45
2022/03/26 02:47:16;;;;;;;5.53;5.03;;;6.10;88.20;;;;;;5031183;28;20533;-44
2022/03/26 02:49:43;;;;;;;9.70;6.70;;;6.10;88.30;;;;;;5031204;28;21112;-44
2022/03/26 02:52:10;;;;;;;6.83;5.90;;;6.20;88.40;;;;;;5031335;28;20520;-44
2022/03/26 02:54:39;;;;;;;6.43;5.87;;;6.40;87.90;;;;;;5031362;28;20502;-44
2022/03/26 02:57:06;;;;;;;7.30;5.43;;;6.50;87.50;;;;;;5031411;28;20471;-48
2022/03/26 02:59:33;;;;;;;5.80;5.23;;;6.60;86.70;;;;;;5030949;28;20477;-45
2022/03/26 03:02:00;;;;;;;8.00;5.73;;;6.80;86.60;;;;;;5030513;28;20434;-50
2022/03/26 03:04:27;;;;;;;6.43;5.60;;;6.90;86.00;;;;;;5031346;28;20502;-45
2022/03/26 03:06:54;;;;;;;8.23;6.17;;;7.00;85.70;;;;;;5031108;28;20955;-44
2022/03/26 03:09:21;;;;;;;5.53;5.00;;;7.00;85.00;;;;;;5031288;28;20442;-44
2022/03/26 03:11:50;;;;;;;8.87;5.57;;;6.90;85.00;;;;;;5031083;28;20561;-44
2022/03/26 03:14:17;;;;;;;6.00;5.40;;;6.80;84.80;;;;;;5030825;28;20467;-47
2022/03/26 03:16:45;;;;;;;4.87;4.37;;;6.70;85.30;;;;;;5031227;28;20877;-44
2022/03/26 03:19:12;;;;;;;8.07;5.57;;;6.70;85.90;;;;;;5031127;28;20451;-44
2022/03/26 03:21:39;;;;;;;8.30;5.93;;;6.60;85.40;;;;;;5031071;28;20895;-47
2022/03/26 03:24:07;;;;;;;8.73;6.87;;;6.40;86.20;;;;;;5030914;28;20963;-44
2022/03/26 03:26:34;;;;;;;8.10;6.30;;;6.50;86.90;;;;;;5030981;28;20470;-47
2022/03/26 03:29:02;;;;;;;7.53;6.00;;;6.40;86.70;;;;;;5030433;28;20472;-44
2022/03/26 03:31:29;;;;;;;6.27;5.00;;;6.50;86.70;;;;;;5030922;28;20536;-44
2022/03/26 03:33:56;;;;;;;6.53;5.20;;;6.60;86.10;;;;;;5033880;28;20549;-47
2022/03/26 03:36:23;;;;;;;6.67;5.97;;;6.50;85.90;;;;;;5034984;28;20451;-44
2022/03/26 03:38:50;;;;;;;7.17;5.00;;;6.50;86.20;;;;;;5034699;28;20443;-46
2022/03/26 03:41:18;;;;;;;5.60;5.17;;;6.50;86.50;;;;;;5035386;28;20466;-44
2022/03/26 03:43:45;;;;;;;5.40;4.90;;;6.40;86.50;;;;;;5034802;28;20441;-49
2022/03/26 03:46:13;;;;;;;8.73;5.43;;;6.40;86.10;;;;;;5034696;28;20486;-44
2022/03/26 03:48:40;;;;;;;6.93;5.53;;;6.50;85.80;;;;;;5034676;28;20529;-45
2022/03/26 03:51:08;;;;;;;7.60;5.97;;;6.50;85.80;;;;;;5034533;28;20480;-45
2022/03/26 03:53:35;;;;;;;6.67;5.30;;;6.60;86.70;;;;;;5034402;28;20812;-47
2022/03/26 03:56:02;;;;;;;8.20;6.67;;;6.60;85.20;;;;;;5034716;28;20490;-44
2022/03/26 03:58:29;;;;;;;6.80;6.10;;;6.60;85.60;;;;;;5034580;28;20528;-44
2022/03/26 04:00:57;;;;;;;7.40;6.63;;;6.70;85.60;;;;;;5034258;28;20521;-48
2022/03/26 04:03:25;;;;;;;7.03;6.27;;;6.60;85.00;;;;;;5033631;28;20954;-45
2022/03/26 04:05:52;;;;;;;7.73;6.37;;;6.40;84.90;;;;;;5034462;28;20505;-49
2022/03/26 04:08:19;;;;;;;8.73;7.03;;;6.10;86.00;;;;;;5034225;28;20484;-44
2022/03/26 04:10:46;;;;;;;6.23;5.63;;;5.80;86.50;;;;;;5034137;28;20853;-44
2022/03/26 04:13:12;;;;;;;8.07;6.53;;;5.60;88.10;;;;;;5034452;28;20466;-46
2022/03/26 04:15:40;;;;;;;8.00;6.83;;;5.60;88.90;;;;;;5034494;28;20554;-44
2022/03/26 04:18:07;;;;;;;7.30;5.80;;;5.60;88.70;;;;;;5034214;28;20465;-45
2022/03/26 04:20:36;;;;;;;6.47;5.87;;;5.60;89.10;;;;;;5033887;28;20443;-44
2022/03/26 04:23:03;;;;;;;7.87;6.30;;;5.60;88.90;;;;;;5033971;28;20474;-44
2022/03/26 04:25:31;;;;;;;7.63;6.13;;;5.70;88.90;;;;;;5034276;28;20504;-46
2022/03/26 04:27:58;;;;;;;7.77;6.00;;;5.70;88.60;;;;;;5034027;28;20442;-44
2022/03/26 04:30:25;;;;;;;6.63;5.90;;;5.60;88.50;;;;;;5033617;28;20473;-49
2022/03/26 04:32:52;;;;;;;6.90;5.60;;;5.20;89.20;;;;;;5033654;28;20564;-44
2022/03/26 04:35:19;;;;;;;8.10;6.90;;;5.10;90.10;;;;;;5033902;28;20498;-44
2022/03/26 04:37:47;;;;;;;7.47;6.50;;;5.00;90.10;;;;;;5033869;28;20896;-45
2022/03/26 04:40:14;;;;;;;6.83;5.83;;;5.10;90.20;;;;;;5033596;28;20947;-45
2022/03/26 04:42:42;;;;;;;8.93;6.80;;;5.20;90.30;;;;;;5033630;28;20947;-44
2022/03/26 04:45:10;;;;;;;8.87;6.53;;;5.10;89.60;;;;;;5032361;28;20502;-44
2022/03/26 04:47:37;;;;;;;8.40;6.10;;;5.00;90.30;;;;;;5033549;28;20488;-45
2022/03/26 04:50:06;;;;;;;7.97;6.13;;;4.90;90.70;;;;;;5033312;28;20446;-48
2022/03/26 04:52:32;;;;;;;8.90;6.90;;;4.80;90.70;;;;;;5032952;28;21041;-44
2022/03/26 04:55:01;;;;;;;7.07;5.93;;;4.70;90.90;;;;;;5033531;28;20505;-45
2022/03/26 04:57:28;;;;;;;11.70;7.37;;;4.90;90.90;;;;;;5033399;28;20477;-44
2022/03/26 04:59:55;;;;;;;7.20;5.70;;;5.00;90.90;;;;;;5033481;28;20488;-44
2022/03/26 05:02:22;;;;;;;9.60;6.40;;;5.10;90.80;;;;;;5033402;28;20442;-44
2022/03/26 05:04:49;;;;;;;8.03;7.10;;;5.40;90.50;;;;;;5033498;28;20548;-44
2022/03/26 05:10:01;;;;;;;8.10;6.20;;;5.50;89.80;;;;;;5033111;28;20426;-44
2022/03/26 05:12:28;;;;;;;8.40;6.90;;;5.70;89.30;;;;;;5033107;28;20569;-45
2022/03/26 05:14:55;;;;;;;8.10;6.40;;;5.50;88.20;;;;;;5033069;28;20601;-44
2022/03/26 05:17:22;;;;;;;8.60;6.70;;;5.20;88.80;;;;;;5032997;28;20500;-48
2022/03/26 05:19:49;;;;;;;13.57;8.30;;;5.10;90.00;;;;;;5032615;28;20442;-44
2022/03/26 05:22:16;;;;;;;17.50;13.00;;;5.20;90.10;;;;;;5032926;28;20484;-44
2022/03/26 05:24:43;;;;;;;11.10;8.80;;;5.20;90.10;;;;;;5032888;28;20554;-46
2022/03/26 05:27:11;;;;;;;9.93;8.03;;;5.40;90.00;;;;;;5032776;28;20474;-44
2022/03/26 05:29:38;;;;;;;9.27;7.97;;;5.60;89.80;;;;;;5033017;28;20489;-44
2022/03/26 05:32:07;;;;;;;8.77;6.70;;;5.70;89.30;;;;;;5032665;28;20509;-47
2022/03/26 05:34:34;;;;;;;13.30;7.60;;;5.70;89.30;;;;;;5032603;28;20466;-44
2022/03/26 05:37:01;;;;;;;8.97;6.83;;;5.50;89.50;;;;;;5032835;28;21087;-44
2022/03/26 05:39:28;;;;;;;9.10;7.03;;;5.60;90.00;;;;;;5032277;28;20446;-47
2022/03/26 05:41:55;;;;;;;8.27;7.40;;;5.70;90.00;;;;;;5032762;28;20529;-44
2022/03/26 05:44:24;;;;;;;9.43;7.73;;;5.90;89.70;;;;;;5032339;28;20492;-45
2022/03/26 05:46:51;;;;;;;10.10;6.53;;;5.80;89.40;;;;;;5032397;28;20481;-45
2022/03/26 05:49:19;;;;;;;9.33;8.43;;;5.90;89.30;;;;;;5031975;28;20466;-44
2022/03/26 05:51:46;;;;;;;11.10;7.80;;;5.70;88.90;;;;;;5032700;28;20486;-44
2022/03/26 05:54:13;;;;;;;8.07;7.10;;;5.40;90.00;;;;;;5032399;28;20880;-45
2022/03/26 05:56:40;;;;;;;8.30;7.10;;;5.30;90.10;;;;;;5032399;28;20444;-44
2022/03/26 05:59:09;;;;;;;10.63;8.40;;;5.50;90.10;;;;;;5031949;28;20529;-44
2022/03/26 06:01:37;;;;;;;13.20;11.67;;;5.70;89.90;;;;;;5032812;28;20809;-44
2022/03/26 06:04:04;;;;;;;12.33;7.80;;;5.80;89.60;;;;;;5032011;28;20525;-44
2022/03/26 06:06:31;;;;;;;10.80;9.03;;;5.80;89.20;;;;;;5032298;28;20481;-48
2022/03/26 06:08:58;;;;;;;8.80;8.00;;;5.50;89.60;;;;;;5031999;28;20482;-44
2022/03/26 06:11:25;;;;;;;11.03;9.93;;;5.40;90.10;;;;;;5031884;28;21155;-44
2022/03/26 06:13:52;;;;;;;9.23;8.30;;;5.50;90.40;;;;;;5032545;28;20474;-45
2022/03/26 06:16:20;;;;;;;10.00;8.20;;;5.40;90.50;;;;;;5031982;28;20502;-44
2022/03/26 06:18:48;;;;;;;9.47;8.47;;;5.40;90.60;;;;;;5032535;28;20485;-44
2022/03/26 06:21:16;;;;;;;10.77;7.43;;;5.40;90.80;;;;;;5031975;28;20508;-45
2022/03/26 06:23:43;;;;;;;11.13;7.77;;;5.40;90.90;;;;;;5032304;28;20441;-45
2022/03/26 06:26:10;;;;;;;13.30;8.77;;;5.70;90.80;;;;;;5031608;28;20497;-44
2022/03/26 06:28:38;;;;;;;10.47;7.47;;;5.90;90.50;;;;;;5031501;28;20497;-44
2022/03/26 06:31:05;;;;;;;10.57;8.10;;;5.90;90.20;;;;;;5031711;28;20600;-44
2022/03/26 06:33:32;;;;;;;8.40;7.40;;;5.80;90.10;;;;;;5031753;28;20520;-44
2022/03/26 06:36:01;;;;;;;11.13;8.33;;;5.70;90.40;;;;;;5031649;28;20523;-44
2022/03/26 06:38:31;;;;;;;11.73;9.33;;;5.60;90.60;;;;;;5031630;28;20923;-45
2022/03/26 06:40:58;;;;;;;9.10;7.63;;;5.50;90.80;;;;;;5031700;28;20439;-44
2022/03/26 06:43:25;;;;;;;9.73;7.90;;;5.40;91.10;;;;;;5031868;28;20473;-44
2022/03/26 06:45:52;;;;;;;8.07;6.80;;;5.50;91.50;;;;;;5031542;28;20549;-45
2022/03/26 06:48:19;;;;;;;8.57;7.60;;;5.40;91.40;;;;;;5031684;28;20814;-44
2022/03/26 06:50:46;;;;;;;8.63;7.40;;;5.30;91.70;;;;;;5031326;28;20477;-47
2022/03/26 06:53:14;;;;;;;8.20;7.40;;;5.40;91.60;;;;;;5031138;28;20906;-44
2022/03/26 06:55:42;;;;;;;10.70;7.70;;;5.70;91.50;;;;;;5031275;28;21034;-44
2022/03/26 06:58:09;;;;;;;8.57;7.67;;;6.00;91.40;;;;;;5031595;28;20446;-44
2022/03/26 07:00:36;;;;;;;9.80;8.00;;;6.20;91.20;;;;;;5031275;28;20520;-44
2022/03/26 07:03:03;;;;;;;11.07;8.20;;;6.40;90.90;;;;;;5030786;28;20496;-44
2022/03/26 07:05:30;;;;;;;11.23;8.10;;;6.40;90.80;;;;;;5031429;28;20508;-44
2022/03/26 07:07:57;;;;;;;9.90;8.30;;;6.50;90.60;;;;;;5030485;28;20977;-47
2022/03/26 07:10:25;;;;;;;12.47;8.03;;;6.30;90.60;;;;;;5031043;28;20874;-44
2022/03/26 07:12:52;;;;;;;11.57;8.93;;;6.30;91.00;;;;;;5031050;28;20474;-44
2022/03/26 07:15:19;;;;;;;13.27;9.30;;;6.40;90.60;;;;;;5032198;28;20517;-44
2022/03/26 07:17:46;;;;;;;11.67;8.90;;;6.50;90.90;;;;;;5031302;28;20865;-44
2022/03/26 07:20:14;;;;;;;8.93;8.00;;;6.60;90.50;;;;;;5031159;28;20474;-44
2022/03/26 07:22:41;;;;;;;11.83;8.10;;;6.60;90.50;;;;;;5031101;28;20440;-44
2022/03/26 07:25:09;;;;;;;10.87;8.20;;;6.70;90.60;;;;;;5030907;28;20874;-45
2022/03/26 07:27:38;;;;;;;14.63;8.37;;;6.80;90.30;;;;;;5031126;28;20763;-44
2022/03/26 07:30:07;;;;;;;12.67;9.27;;;6.70;90.10;;;;;;5030636;28;21001;-45
2022/03/26 07:32:33;;;;;;;10.57;8.83;;;6.60;90.60;;;;;;5030884;28;20561;-44
2022/03/26 07:35:00;;;;;;;15.40;10.13;;;6.50;90.80;;;;;;5031323;28;20498;-44
2022/03/26 07:37:27;;;;;;;12.03;8.80;;;6.50;91.00;;;;;;5030929;28;20528;-44
2022/03/26 07:39:54;;;;;;;10.40;8.80;;;6.50;91.30;;;;;;5030748;28;20534;-44
2022/03/26 07:42:21;;;;;;;10.97;8.93;;;6.60;92.70;;;;;;5031136;28;20526;-44
2022/03/26 07:44:50;;;;;;;9.10;8.20;;;6.60;92.50;;;;;;5030821;28;20890;-44
2022/03/26 07:47:17;;;;;;;11.80;9.90;;;6.80;92.20;;;;;;5030699;28;20488;-46
2022/03/26 07:49:44;;;;;;;13.60;12.30;;;6.90;92.10;;;;;;5030932;28;20478;-52
2022/03/26 07:52:11;;;;;;;14.33;10.60;;;7.00;92.60;;;;;;5030682;28;20947;-47
2022/03/26 07:54:38;;;;;;;15.10;12.40;;;6.90;93.30;;;;;;5031053;28;20500;-51
2022/03/26 07:57:06;;;;;;;12.60;11.03;;;7.00;93.40;;;;;;5030854;28;20473;-44
2022/03/26 07:59:33;;;;;;;14.73;10.87;;;7.10;93.50;;;;;;5030688;28;20480;-45
2022/03/26 08:02:01;;;;;;;14.00;11.10;;;7.20;93.50;;;;;;5030402;28;20533;-50
2022/03/26 08:04:28;;;;;;;16.30;13.63;;;7.40;93.20;;;;;;5030701;28;20913;-44
2022/03/26 08:06:55;;;;;;;11.90;10.30;;;7.50;92.70;;;;;;5030822;28;20450;-45
2022/03/26 08:09:22;;;;;;;19.00;11.77;;;7.50;92.60;;;;;;5030597;28;20472;-44
2022/03/26 08:11:49;;;;;;;27.00;11.97;;;7.50;93.00;;;;;;5030903;28;20482;-49
2022/03/26 08:14:16;;;;;;;13.20;9.40;;;7.40;92.50;;;;;;5030528;28;20505;-45
2022/03/26 08:16:43;;;;;;;12.07;8.77;;;7.30;91.70;;;;;;5030681;28;20481;-45
2022/03/26 08:19:11;;;;;;;16.03;8.93;;;7.20;91.60;;;;;;5030787;28;20541;-46
2022/03/26 08:21:38;;;;;;;20.27;13.77;;;7.30;91.30;;;;;;5033863;28;20481;-46
2022/03/26 08:24:05;;;;;;;11.77;9.97;;;7.50;91.20;;;;;;5034296;28;20495;-44
2022/03/26 08:26:32;;;;;;;12.07;9.47;;;7.50;90.80;;;;;;5033625;28;20541;-46
2022/03/26 08:29:01;;;;;;;11.57;8.47;;;7.70;90.40;;;;;;5033496;28;20466;-45
2022/03/26 08:31:31;;;;;;;24.47;8.80;;;7.80;90.20;;;;;;5033448;28;20529;-45
2022/03/26 08:33:59;;;;;;;15.93;7.90;;;8.00;89.80;;;;;;5030933;28;20844;-45
2022/03/26 08:36:28;;;;;;;10.57;9.43;;;8.30;89.30;;;;;;5033229;28;20488;-44
2022/03/26 08:38:55;;;;;;;11.80;9.40;;;8.40;89.20;;;;;;5033401;28;20477;-49
2022/03/26 08:41:24;;;;;;;15.03;9.03;;;8.50;86.50;;;;;;5033180;28;20470;-45
2022/03/26 08:43:52;;;;;;;610.23;59.50;;;8.60;86.10;;;;;;5033755;28;20815;-44
2022/03/26 08:46:20;;;;;;;70.50;15.57;;;8.70;86.90;;;;;;5033457;28;21046;-44
2022/03/26 08:48:48;;;;;;;9.80;8.67;;;8.70;89.20;;;;;;5033833;28;20454;-48
2022/03/26 08:51:15;;;;;;;17.37;13.37;;;8.70;86.90;;;;;;5033499;28;20525;-44
2022/03/26 08:53:43;;;;;;;59.87;16.60;;;8.80;86.30;;;;;;5033610;28;20505;-47
2022/03/26 08:56:11;;;;;;;21.30;12.63;;;9.20;85.00;;;;;;5033615;28;20497;-45
2022/03/26 08:58:38;;;;;;;14.27;11.00;;;9.60;82.40;;;;;;5033778;28;20553;-49
2022/03/26 09:01:07;;;;;;;25.70;13.37;;;9.80;81.00;;;;;;5033122;28;20481;-45
2022/03/26 09:03:37;;;;;;;55.17;15.50;;;10.10;79.40;;;;;;5031662;28;20442;-45
2022/03/26 09:06:06;;;;;;;30.07;15.23;;;10.40;75.50;;;;;;5032078;28;20477;-46
2022/03/26 09:08:33;;;;;;;101.90;19.47;;;10.70;79.20;;;;;;5033489;28;20458;-44
2022/03/26 09:11:03;;;;;;;26.53;13.03;;;10.90;77.40;;;;;;5033056;28;20878;-45
2022/03/26 09:13:30;;;;;;;15.27;12.47;;;11.20;75.00;;;;;;5032901;28;20478;-45
2022/03/26 09:15:58;;;;;;;11.70;9.27;;;11.30;74.10;;;;;;5032974;28;20509;-45
2022/03/26 09:18:25;;;;;;;21.67;11.43;;;11.20;71.30;;;;;;5033204;28;20541;-50
2022/03/26 09:20:52;;;;;;;17.13;10.40;;;11.20;72.90;;;;;;5032834;28;20473;-45
2022/03/26 09:23:19;;;;;;;14.53;10.37;;;11.20;73.90;;;;;;5033334;28;20703;-45
2022/03/26 09:25:46;;;;;;;34.33;11.90;;;11.30;73.20;;;;;;5033094;28;20549;-45
2022/03/26 09:28:14;;;;;;;23.53;11.43;;;11.30;73.80;;;;;;5033044;28;20485;-45
2022/03/26 09:30:41;;;;;;;16.10;9.67;;;11.60;73.70;;;;;;5032125;28;20549;-44
2022/03/26 09:33:08;;;;;;;25.37;11.73;;;11.70;74.00;;;;;;5032740;28;20568;-47
2022/03/26 09:35:35;;;;;;;34.10;13.70;;;11.70;75.50;;;;;;5032237;28;20589;-46
2022/03/26 09:38:02;;;;;;;33.47;12.47;;;12.00;72.20;;;;;;5032927;28;20474;-50
2022/03/26 09:40:29;;;;;;;77.27;25.30;;;12.10;70.50;;;;;;5032675;28;20489;-45
2022/03/26 09:42:57;;;;;;;12.07;10.60;;;12.30;71.40;;;;;;5031643;28;20435;-48
2022/03/26 09:45:25;;;;;;;29.30;11.40;;;12.20;67.00;;;;;;5031016;28;20553;-48
2022/03/26 09:47:53;;;;;;;15.40;12.53;;;12.20;69.80;;;;;;5030073;28;20474;-52
2022/03/26 09:50:21;;;;;;;21.97;12.00;;;12.30;68.50;;;;;;5030519;28;20446;-46
2022/03/26 09:52:49;;;;;;;21.70;11.27;;;12.40;69.60;;;;;;5029814;28;20459;-47
2022/03/26 09:55:19;;;;;;;23.33;12.53;;;12.40;69.00;;;;;;5030544;28;20497;-46
2022/03/26 09:57:48;;;;;;;24.83;10.13;;;12.60;70.60;;;;;;5031909;28;20489;-46
2022/03/26 10:00:16;;;;;;;78.47;17.57;;;12.80;69.70;;;;;;5032199;28;20478;-45
2022/03/26 10:02:44;;;;;;;12.87;10.23;;;12.90;70.00;;;;;;5031744;28;20477;-45
2022/03/26 10:05:12;;;;;;;21.17;12.30;;;12.90;67.70;;;;;;5031899;28;20501;-46
2022/03/26 10:07:40;;;;;;;58.30;12.57;;;12.80;66.60;;;;;;5030718;28;20454;-45
2022/03/26 10:10:08;;;;;;;30.37;13.57;;;12.80;67.70;;;;;;5030099;28;20438;-45
2022/03/26 10:12:35;;;;;;;27.57;12.30;;;13.00;69.90;;;;;;5029712;28;20481;-45
2022/03/26 10:15:05;;;;;;;34.03;13.60;;;12.90;69.90;;;;;;5030221;28;20565;-46
2022/03/26 10:17:33;;;;;;;15.20;10.67;;;13.10;68.50;;;;;;5030249;28;20446;-47
2022/03/26 10:20:05;;;;;;;44.10;14.57;;;13.30;66.50;;;;;;5029877;28;20995;-45
2022/03/26 10:22:34;;;;;;;21.50;12.43;;;13.60;67.70;;;;;;5031245;28;20485;-46
2022/03/26 10:25:05;;;;;;;237.80;28.30;;;14.20;70.80;;;;;;5031775;28;21010;-47
2022/03/26 10:27:40;;;;;;;31.43;13.00;;;14.40;68.30;;;;;;5031776;28;20446;-46
2022/03/26 10:30:07;;;;;;;25.30;15.23;;;14.50;66.50;;;;;;5031562;28;20549;-46
2022/03/26 10:32:45;;;;;;;63.20;17.30;;;14.60;65.60;;;;;;5031352;28;20529;-45
2022/03/26 10:35:22;;;;;;;37.17;13.07;;;14.70;67.30;;;;;;5031273;28;20466;-49
2022/03/26 10:37:56;;;;;;;22.43;11.70;;;14.70;63.40;;;;;;5029972;28;20981;-46
2022/03/26 10:40:28;;;;;;;160.87;24.23;;;14.80;64.00;;;;;;5029971;28;20449;-47
2022/03/26 10:43:01;;;;;;;44.40;13.83;;;14.90;65.80;;;;;;5029449;28;20450;-47
2022/03/26 10:45:29;;;;;;;48.23;21.93;;;14.90;64.50;;;;;;5029864;28;20549;-46
2022/03/26 10:47:58;;;;;;;15.17;11.20;;;15.10;63.30;;;;;;5029902;28;20469;-48
2022/03/26 10:50:27;;;;;;;22.40;12.47;;;15.10;63.50;;;;;;5029665;28;20481;-52
2022/03/26 10:52:55;;;;;;;16.27;11.60;;;15.00;62.00;;;;;;5030488;28;20486;-46
2022/03/26 10:55:23;;;;;;;16.90;11.63;;;15.00;64.20;;;;;;5030954;28;20831;-45
2022/03/26 10:57:50;;;;;;;55.57;14.77;;;15.10;62.20;;;;;;5031266;28;20977;-46
2022/03/26 11:00:19;;;;;;;34.23;12.40;;;15.10;61.70;;;;;;5030785;28;20517;-49
2022/03/26 11:02:47;;;;;;;30.97;13.13;;;15.00;60.60;;;;;;5029909;28;20466;-46
2022/03/26 11:05:15;;;;;;;14.30;10.67;;;15.10;62.60;;;;;;5013302;28;20542;-47
2022/03/26 11:07:44;;;;;;;23.83;14.30;;;15.20;61.50;;;;;;5015341;28;20442;-47
2022/03/26 11:10:13;;;;;;;18.03;11.73;;;15.30;63.80;;;;;;5025425;28;20537;-46
2022/03/26 11:12:44;;;;;;;15.27;10.93;;;15.60;62.80;;;;;;5029368;28;20450;-46
2022/03/26 11:15:16;;;;;;;13.83;11.67;;;15.50;60.00;;;;;;5029427;28;20486;-49
2022/03/26 11:18:10;;;;;;;16.63;12.60;;;15.40;59.60;;;;;;5029687;28;20485;-46
2022/03/26 11:21:21;;;;;;;13.97;11.40;;;15.60;62.30;;;;;;5030351;28;20529;-46
2022/03/26 11:24:07;;;;;;;16.10;12.50;;;15.90;64.60;;;;;;5023330;28;20529;-46
2022/03/26 11:26:49;;;;;;;35.33;14.03;;;16.00;62.30;;;;;;5030910;28;20453;-46
2022/03/26 11:29:39;;;;;;;13.47;11.20;;;16.20;59.10;;;;;;5031037;28;20453;-45
2022/03/26 11:32:16;;;;;;;23.33;12.90;;;16.00;57.40;;;;;;5029485;28;20474;-49
2022/03/26 11:34:43;;;;;;;14.27;12.30;;;16.00;59.30;;;;;;5028872;28;20758;-46
2022/03/26 11:37:12;;;;;;;112.37;19.17;;;16.10;58.10;;;;;;5028891;28;20474;-48
2022/03/26 11:39:47;;;;;;;15.40;11.67;;;16.00;60.00;;;;;;5029308;28;20863;-47
2022/03/26 11:42:15;;;;;;;14.63;11.43;;;16.20;59.90;;;;;;5029404;28;20485;-48
2022/03/26 11:50:40;;;;;;;29.63;13.17;;;16.40;58.80;;;;;;5029533;28;20565;-47
2022/03/26 11:53:08;;;;;;;17.40;11.47;;;16.40;59.00;;;;;;5030616;28;20453;-46
2022/03/26 11:55:45;;;;;;;14.57;12.47;;;16.40;57.60;;;;;;5033786;28;20461;-47
2022/03/26 11:58:20;;;;;;;14.53;11.20;;;16.50;58.70;;;;;;5034437;28;20433;-46
2022/03/26 12:00:58;;;;;;;13.23;9.83;;;16.70;59.40;;;;;;5034028;28;20866;-46
2022/03/26 12:03:25;;;;;;;12.33;10.90;;;16.60;56.70;;;;;;5032621;28;20446;-46
2022/03/26 12:08:50;;;;;;;12.10;10.63;;;16.60;55.20;;;;;;5033058;28;20429;-49
2022/03/26 12:11:21;;;;;;;12.20;9.40;;;16.60;56.60;;;;;;5032899;28;20445;-47
2022/03/26 12:14:01;;;;;;;11.30;10.13;;;16.80;53.00;;;;;;5033153;28;20482;-46
2022/03/26 12:16:55;;;;;;;14.77;10.47;;;16.80;51.80;;;;;;5033470;28;20442;-46
2022/03/26 12:19:42;;;;;;;14.00;11.87;;;17.10;55.10;;;;;;5014457;28;20534;-46
2022/03/26 12:22:19;;;;;;;45.33;14.93;;;17.10;53.40;;;;;;5013246;28;20443;-49
2022/03/26 12:24:47;;;;;;;13.13;10.93;;;17.10;51.10;;;;;;5012772;28;20459;-46
2022/03/26 12:27:16;;;;;;;13.40;10.53;;;17.00;51.00;;;;;;5030918;28;20477;-46
2022/03/26 12:29:43;;;;;;;11.50;10.20;;;16.80;52.00;;;;;;5032281;28;20473;-46
2022/03/26 12:32:10;;;;;;;13.03;10.50;;;16.90;49.80;;;;;;5032362;28;20442;-48
2022/03/26 12:34:53;;;;;;;14.20;11.43;;;17.00;51.20;;;;;;5032352;28;20593;-46
2022/03/26 12:37:20;;;;;;;10.93;9.83;;;17.20;50.10;;;;;;5032348;28;20940;-46
2022/03/26 12:39:47;;;;;;;11.80;10.60;;;17.30;50.70;;;;;;5033119;28;21005;-46
2022/03/26 12:42:16;;;;;;;11.57;10.37;;;17.20;50.90;;;;;;5035429;28;20478;-46
2022/03/26 12:44:42;;;;;;;13.70;11.03;;;17.20;50.50;;;;;;5042323;28;20505;-46
2022/03/26 12:47:09;;;;;;;15.43;13.00;;;17.20;53.60;;;;;;5033809;28;20525;-48
2022/03/26 12:49:38;;;;;;;13.57;10.83;;;17.30;51.60;;;;;;5033656;28;20469;-46
2022/03/26 12:52:06;;;;;;;13.00;11.60;;;17.30;50.50;;;;;;5033548;28;20450;-47
2022/03/26 12:54:33;;;;;;;15.67;12.53;;;17.40;50.00;;;;;;5032840;28;20481;-46
2022/03/26 12:57:01;;;;;;;12.60;11.30;;;17.40;52.80;;;;;;5033024;28;20474;-46
2022/03/26 12:59:28;;;;;;;15.90;11.77;;;17.50;50.20;;;;;;5013456;28;20467;-46
2022/03/26 13:01:59;;;;;;;13.90;11.33;;;17.40;51.30;;;;;;5012865;28;20968;-49